Time;durP1;ratioP1;P1;durP2;ratioP2;P2;SDS_P1;SDS_P2;PMS_P1;PMS_P2;Temp;Humidity;BMP_temperature;BMP_pressure;BME280_temperature;BME280_humidity;BME280_pressure;Samples;Min_cycle;Max_cycle;Signal;HPM_P1;HPM_P2
2022/12/13 00:01:52;;;;;;;24.73;15.03;;;-3.30;99.90;;;-141.84;81.82;18507.25;5033644;28;20225;-77
2022/12/13 00:04:22;;;;;;;25.77;15.33;;;-3.30;99.90;;;-141.84;81.85;18511.31;5033256;28;20312;-77
2022/12/13 00:06:52;;;;;;;27.03;14.83;;;-3.30;99.90;;;-141.84;82.20;18497.09;5013653;28;20224;-77
2022/12/13 00:09:21;;;;;;;24.47;15.77;;;-3.40;99.90;;;-141.84;82.13;18503.19;5025768;28;20607;-79
2022/12/13 00:11:53;;;;;;;26.30;15.47;;;-3.40;99.90;;;-141.84;81.75;18525.53;5032708;28;20232;-77
2022/12/13 00:14:21;;;;;;;26.67;15.60;;;-3.50;99.90;;;-141.84;81.71;18517.41;5033374;28;20193;-68
2022/12/13 00:16:50;;;;;;;28.87;16.90;;;-3.40;99.90;;;-141.84;82.12;18515.38;5033414;28;20215;-77
2022/12/13 00:19:19;;;;;;;24.77;15.67;;;-3.40;99.90;;;-141.84;82.03;18503.19;5032753;28;20235;-78
2022/12/13 00:21:47;;;;;;;29.63;16.90;;;-3.40;99.90;;;-141.84;81.88;18488.97;5032249;28;20346;-77
2022/12/13 00:24:16;;;;;;;27.23;17.70;;;-3.40;99.90;;;-141.84;82.19;18468.66;5032734;28;20225;-77
2022/12/13 00:26:44;;;;;;;28.17;18.87;;;-3.50;99.90;;;-141.84;82.37;18476.78;5032126;28;20676;-77
2022/12/13 00:29:14;;;;;;;30.60;20.20;;;-3.60;99.90;;;-141.84;81.69;18466.63;5033028;28;20201;-77
2022/12/13 00:31:42;;;;;;;28.40;20.17;;;-3.50;99.90;;;-141.84;81.68;18488.97;5032716;28;20768;-76
2022/12/13 00:34:28;;;;;;;26.70;16.83;;;-3.40;99.90;;;-141.84;80.73;18488.97;5012960;28;20782;-76
2022/12/13 00:36:58;;;;;;;27.00;17.70;;;-3.50;99.90;;;-141.84;80.74;18493.03;5012224;28;20219;-77
2022/12/13 00:39:27;;;;;;;30.70;17.60;;;-3.60;99.90;;;-141.84;81.38;18497.09;5030334;28;20232;-77
2022/12/13 00:41:56;;;;;;;30.27;19.83;;;-3.60;99.90;;;-141.84;81.52;18488.97;5032319;28;20221;-78
2022/12/13 00:44:26;;;;;;;32.03;17.73;;;-3.70;99.90;;;-141.84;81.88;18505.22;5032626;28;20205;-77
2022/12/13 00:46:55;;;;;;;26.83;15.83;;;-3.70;99.90;;;-141.84;81.98;18505.22;5032904;28;20224;-78
2022/12/13 00:49:24;;;;;;;24.60;16.33;;;-3.70;99.90;;;-141.84;81.70;18466.63;5032005;28;20231;-79
2022/12/13 00:51:52;;;;;;;22.60;15.10;;;-3.70;99.90;;;-141.84;81.73;18470.69;5031150;28;20715;-78
2022/12/13 00:54:20;;;;;;;25.07;15.10;;;-3.70;99.90;;;-141.84;82.00;18491.00;5032040;28;20224;-78
2022/12/13 00:56:50;;;;;;;26.13;15.43;;;-3.80;99.90;;;-141.84;81.67;18513.34;5031646;28;20231;-79
2022/12/13 00:59:18;;;;;;;27.10;15.40;;;-3.80;99.90;;;-141.84;81.66;18503.19;5032912;28;20211;-79
2022/12/13 01:01:48;;;;;;;23.63;15.67;;;-3.70;99.90;;;-141.84;81.80;18497.09;5032601;28;20221;-77
2022/12/13 01:04:16;;;;;;;24.67;16.07;;;-3.80;99.90;;;-141.84;81.63;18486.94;5033116;28;20711;-78
2022/12/13 01:06:48;;;;;;;25.63;15.40;;;-3.80;99.90;;;-141.84;81.08;18503.19;5031591;28;20225;-76
2022/12/13 01:09:20;;;;;;;23.93;14.60;;;-3.80;99.90;;;-141.84;80.12;18519.44;5031992;28;20228;-77
2022/12/13 01:11:49;;;;;;;25.07;14.53;;;-3.70;99.90;;;-141.84;80.06;18491.00;5032135;28;20654;-76
2022/12/13 01:14:18;;;;;;;21.57;14.03;;;-3.80;99.90;;;-141.84;80.23;18488.97;5032413;28;20675;-77
2022/12/13 01:16:48;;;;;;;21.57;13.90;;;-3.80;99.90;;;-141.84;79.98;18499.13;5032117;28;20220;-78
2022/12/13 01:19:17;;;;;;;22.00;14.73;;;-3.80;99.90;;;-141.84;79.98;18501.16;5031509;28;20279;-76
2022/12/13 01:21:45;;;;;;;21.93;13.47;;;-3.80;99.90;;;-141.84;80.00;18519.44;5031015;28;20220;-78
2022/12/13 01:24:13;;;;;;;22.30;14.23;;;-3.80;99.90;;;-141.84;80.21;18474.75;5031313;28;20227;-76
2022/12/13 01:26:41;;;;;;;22.90;14.13;;;-3.90;99.90;;;-141.84;80.14;18517.41;5031657;28;20312;-77
2022/12/13 01:29:10;;;;;;;20.93;14.10;;;-3.90;99.90;;;-141.84;80.31;18488.97;5033087;28;20204;-76
2022/12/13 01:31:40;;;;;;;22.90;14.00;;;-4.00;99.90;;;-141.84;79.42;18513.34;5032805;28;20782;-77
2022/12/13 01:34:11;;;;;;;19.83;12.50;;;-4.00;99.90;;;-141.84;78.87;18533.66;5031407;28;20705;-79
2022/12/13 01:36:41;;;;;;;22.23;13.80;;;-4.00;99.90;;;-141.84;79.07;18511.31;5029921;28;20231;-78
2022/12/13 01:39:11;;;;;;;20.70;13.30;;;-4.10;99.90;;;-141.84;79.56;18503.19;5012467;28;20240;-78
2022/12/13 01:41:44;;;;;;;21.83;13.23;;;-4.10;99.90;;;-141.84;79.95;18501.16;5011961;28;20704;-76
2022/12/13 01:45:01;;;;;;;25.30;14.13;;;-4.20;99.90;;;-141.84;79.69;18466.63;5013279;28;20196;-76
2022/12/13 01:47:40;;;;;;;22.40;14.77;;;-4.20;99.90;;;-141.84;79.60;18509.28;5031821;28;20710;-77
2022/12/13 01:50:15;;;;;;;20.37;13.20;;;-4.20;99.90;;;-141.84;79.58;18501.16;5032087;28;20192;-77
2022/12/13 01:52:46;;;;;;;23.17;14.10;;;-4.20;99.90;;;-141.84;79.55;18499.13;5030331;28;20226;-76
2022/12/13 01:55:18;;;;;;;25.20;14.00;;;-4.20;99.90;;;-141.84;79.75;18513.34;5031112;28;20290;-76
2022/12/13 01:57:51;;;;;;;23.90;13.37;;;-4.30;99.90;;;-141.84;79.83;18535.69;5031216;28;20281;-76
2022/12/13 02:00:19;;;;;;;21.47;13.67;;;-4.40;99.90;;;-141.84;79.93;18509.28;5031526;28;20818;-77
2022/12/13 02:02:49;;;;;;;27.07;13.87;;;-4.40;99.90;;;-141.84;79.98;18507.25;5031551;28;20232;-76
2022/12/13 02:05:27;;;;;;;24.83;14.30;;;-4.40;99.90;;;-141.84;79.88;18521.47;5031621;28;20636;-76
2022/12/13 02:07:59;;;;;;;25.50;13.90;;;-4.50;99.90;;;-141.84;79.29;18521.47;5030799;28;20278;-77
2022/12/13 02:10:29;;;;;;;23.37;13.53;;;-4.40;99.90;;;-141.84;78.44;18519.44;5031403;28;20339;-77
2022/12/13 02:12:58;;;;;;;24.77;14.40;;;-4.40;99.90;;;-141.84;78.95;18549.91;5031034;28;20237;-78
2022/12/13 02:15:41;;;;;;;20.83;13.63;;;-4.40;99.90;;;-141.84;79.60;18515.38;5031302;28;20233;-79
2022/12/13 02:18:26;;;;;;;26.00;13.77;;;-4.50;99.90;;;-141.84;79.70;18511.31;5031224;28;20686;-76
2022/12/13 02:21:25;;;;;;;24.27;13.73;;;-4.50;99.90;;;-141.84;79.35;18493.03;5030731;28;20228;-77
2022/12/13 02:24:33;;;;;;;22.87;13.27;;;-4.50;99.90;;;-141.84;79.58;18505.22;5030940;28;20228;-76
2022/12/13 02:27:11;;;;;;;20.40;12.97;;;-4.60;99.90;;;-141.84;79.76;18495.06;5031028;28;20882;-76
2022/12/13 02:30:26;;;;;;;23.43;14.00;;;-4.60;99.90;;;-141.84;79.71;18521.47;5031381;28;20179;-77
2022/12/13 02:33:26;;;;;;;25.30;16.10;;;-4.70;99.90;;;-141.84;79.68;18495.06;5011033;28;20229;-77
2022/12/13 02:36:07;;;;;;;25.10;16.50;;;-4.70;99.90;;;-141.84;79.61;18511.31;5010935;28;20224;-76
2022/12/13 02:38:49;;;;;;;26.00;15.37;;;-4.70;99.90;;;-141.84;80.12;18488.97;5029947;28;20212;-76
2022/12/13 02:41:25;;;;;;;23.20;14.10;;;-4.80;99.90;;;-141.84;80.42;18509.28;5051205;28;20591;-75
2022/12/13 02:44:01;;;;;;;22.93;14.57;;;-4.80;99.90;;;-141.84;80.50;18521.47;5030476;28;20207;-77
2022/12/13 02:46:37;;;;;;;24.57;14.07;;;-4.80;99.90;;;-141.84;80.65;18515.38;5030781;28;20231;-77
2022/12/13 02:49:09;;;;;;;24.20;13.93;;;-4.90;99.90;;;-141.84;80.74;18503.19;5044506;28;20587;-76
2022/12/13 02:51:39;;;;;;;22.13;12.90;;;-4.90;99.90;;;-141.84;80.66;18533.66;5051950;28;20710;-77
2022/12/13 02:54:07;;;;;;;23.43;14.00;;;-4.90;99.90;;;-141.84;80.78;18525.53;5053801;28;20226;-75
2022/12/13 02:56:36;;;;;;;26.60;14.67;;;-4.90;99.90;;;-141.84;80.74;18525.53;5054178;28;20199;-76
2022/12/13 02:59:12;;;;;;;21.40;13.90;;;-4.90;99.90;;;-141.84;79.95;18513.34;5054467;28;20687;-75
2022/12/13 03:02:04;;;;;;;26.10;14.50;;;-4.90;99.90;;;-141.84;80.23;18495.06;5054151;28;20224;-77
2022/12/13 03:08:00;;;;;;;21.23;13.27;;;-5.00;99.90;;;-141.84;79.80;18513.34;5053266;28;20233;-77
2022/12/13 03:10:36;;;;;;;25.07;14.23;;;-4.90;99.90;;;-141.84;79.61;18486.94;5053661;28;20295;-78
2022/12/13 03:16:03;;;;;;;20.33;12.20;;;-5.00;99.90;;;-141.84;79.92;18513.34;5053543;28;20228;-77
2022/12/13 03:18:34;;;;;;;22.83;14.30;;;-5.10;99.90;;;-141.84;79.97;18488.97;5053246;28;20249;-77
2022/12/13 03:21:07;;;;;;;24.17;13.07;;;-5.00;99.90;;;-141.84;79.88;18493.03;5053690;28;20227;-76
2022/12/13 03:23:37;;;;;;;21.50;13.90;;;-5.00;99.90;;;-141.84;80.09;18499.13;5053629;28;20189;-54
2022/12/13 03:26:12;;;;;;;23.23;14.30;;;-5.10;99.90;;;-141.84;79.95;18523.50;5051069;28;20208;-58
2022/12/13 03:28:40;;;;;;;21.40;13.27;;;-5.00;99.90;;;-141.84;80.08;18507.25;5045734;28;20225;-58
2022/12/13 03:31:09;;;;;;;25.53;14.20;;;-5.10;99.90;;;-141.84;80.14;18533.66;5032658;28;20223;-58
2022/12/13 03:33:38;;;;;;;21.70;13.73;;;-5.10;99.90;;;-141.84;79.95;18525.53;5039337;28;20238;-57
2022/12/13 03:36:09;;;;;;;21.53;13.67;;;-5.10;99.90;;;-141.84;79.40;18525.53;5032656;28;20309;-58
2022/12/13 03:38:39;;;;;;;21.17;14.03;;;-5.10;99.90;;;-141.84;79.09;18533.66;5040846;28;20198;-58
2022/12/13 03:41:11;;;;;;;26.57;14.57;;;-5.10;99.90;;;-141.84;79.55;18547.88;5033184;28;20210;-56
2022/12/13 03:43:40;;;;;;;22.83;13.37;;;-5.10;99.90;;;-141.84;79.63;18488.97;5032667;28;20238;-56
2022/12/13 03:46:09;;;;;;;22.07;14.00;;;-5.10;99.90;;;-141.84;79.28;18517.41;5032901;28;20276;-57
2022/12/13 03:48:39;;;;;;;19.67;13.17;;;-5.20;99.90;;;-141.84;79.47;18511.31;5033111;28;20296;-58
2022/12/13 03:51:07;;;;;;;23.10;13.27;;;-5.20;99.90;;;-141.84;79.27;18531.63;5033247;28;20241;-58
2022/12/13 03:53:35;;;;;;;24.47;13.67;;;-5.20;99.90;;;-141.84;79.26;18513.34;5037824;28;20220;-55
2022/12/13 03:56:06;;;;;;;20.50;13.20;;;-5.30;99.90;;;-141.84;78.86;18523.50;5053428;28;20203;-56
2022/12/13 03:58:35;;;;;;;20.70;13.53;;;-5.20;99.90;;;-141.84;78.50;18535.69;5052350;28;20280;-58
2022/12/13 04:01:12;;;;;;;24.07;13.97;;;-5.30;99.90;;;-141.84;78.72;18521.47;5052226;28;20221;-57
2022/12/13 04:03:45;;;;;;;20.53;13.27;;;-5.30;99.90;;;-141.84;78.94;18513.34;5051483;28;20723;-56
2022/12/13 04:06:15;;;;;;;21.57;13.40;;;-5.30;99.90;;;-141.84;79.08;18501.16;5052703;28;20230;-57
2022/12/13 04:08:50;;;;;;;23.50;14.80;;;-5.30;99.90;;;-141.84;79.03;18521.47;5052059;28;20233;-56
2022/12/13 04:14:10;;;;;;;22.03;14.20;;;-5.40;99.90;;;-141.84;79.07;18562.09;5052003;28;20234;-57
2022/12/13 04:16:39;;;;;;;22.50;13.50;;;-5.40;99.90;;;-141.84;78.76;18486.94;5051776;28;20237;-58
2022/12/13 04:19:08;;;;;;;25.00;15.73;;;-5.40;99.90;;;-141.84;78.53;18509.28;5052063;28;20237;-56
2022/12/13 04:21:36;;;;;;;28.50;18.53;;;-5.40;99.90;;;-141.84;77.77;18509.28;5051978;28;20234;-58
2022/12/13 04:24:05;;;;;;;23.83;17.20;;;-5.40;99.90;;;-141.84;77.71;18529.59;5051502;28;20221;-57
2022/12/13 04:26:33;;;;;;;25.20;16.67;;;-5.50;99.90;;;-141.84;77.85;18513.34;5052130;28;20717;-57
2022/12/13 04:29:01;;;;;;;26.03;16.97;;;-5.50;99.90;;;-141.84;77.40;18497.09;5052518;28;20203;-57
2022/12/13 04:31:30;;;;;;;24.87;17.03;;;-5.40;99.90;;;-141.84;77.53;18503.19;5051691;28;20830;-55
2022/12/13 04:33:58;;;;;;;26.70;17.23;;;-5.40;99.90;;;-141.84;78.02;18503.19;5052140;28;20319;-59
2022/12/13 04:36:27;;;;;;;28.03;19.07;;;-5.40;99.90;;;-141.84;78.45;18511.31;5051791;28;20712;-58
2022/12/13 04:39:00;;;;;;;24.40;17.23;;;-5.50;99.90;;;-141.84;78.85;18537.72;5052011;28;20230;-58
2022/12/13 04:41:30;;;;;;;25.23;14.20;;;-5.60;99.90;;;-141.84;79.15;18507.25;5051894;28;20201;-58
2022/12/13 04:44:03;;;;;;;22.47;13.80;;;-5.60;99.90;;;-141.84;79.42;18543.81;5051665;28;20205;-57
2022/12/13 04:46:31;;;;;;;22.47;14.00;;;-5.60;99.90;;;-141.84;79.68;18527.56;5051393;28;20226;-57
2022/12/13 04:49:00;;;;;;;21.67;12.93;;;-5.60;99.90;;;-141.84;79.65;18513.34;5051346;28;20238;-57
2022/12/13 04:51:30;;;;;;;22.30;12.57;;;-5.50;99.90;;;-141.84;79.44;18515.38;5051657;28;20244;-57
2022/12/13 04:53:58;;;;;;;24.97;13.40;;;-5.70;99.90;;;-141.84;79.63;18468.66;5051757;28;20231;-55
2022/12/13 04:56:47;;;;;;;23.43;13.30;;;;;;;-141.84;79.64;18501.16;5051437;28;20252;-55
2022/12/13 04:59:16;;;;;;;20.60;13.20;;;-5.90;99.90;;;-141.84;79.72;18519.44;5051992;28;20199;-57
2022/12/13 05:01:44;;;;;;;24.50;13.47;;;-5.80;99.90;;;-141.84;79.65;18553.97;5051125;28;20620;-57
2022/12/13 05:04:12;;;;;;;23.30;13.87;;;-5.80;99.90;;;-141.84;79.60;18515.38;5051694;28;20271;-56
2022/12/13 05:06:42;;;;;;;22.37;13.97;;;-5.80;99.90;;;-141.84;79.18;18464.59;5051585;28;20229;-57
2022/12/13 05:09:10;;;;;;;22.30;12.70;;;-5.70;99.90;;;-141.84;78.11;18525.53;5051813;28;20275;-57
2022/12/13 05:11:39;;;;;;;21.37;13.17;;;-5.70;99.90;;;-141.84;77.67;18525.53;5051597;28;20205;-56
2022/12/13 05:14:13;;;;;;;22.63;12.63;;;-5.70;99.90;;;-141.84;77.97;18517.41;5051114;28;20576;-55
2022/12/13 05:16:50;;;;;;;23.73;12.80;;;-5.70;99.90;;;-141.84;78.06;18491.00;5050820;28;20215;-57
2022/12/13 05:19:18;;;;;;;19.83;12.50;;;-5.70;99.90;;;-141.84;78.13;18533.66;5051369;28;20224;-56
2022/12/13 05:21:48;;;;;;;20.57;12.73;;;-5.70;99.90;;;-141.84;78.20;18513.34;5051275;28;20232;-58
2022/12/13 05:24:17;;;;;;;24.70;12.97;;;-5.80;99.90;;;-141.84;78.62;18501.16;5051228;28;20642;-58
2022/12/13 05:26:45;;;;;;;22.50;13.63;;;-5.80;99.90;;;-141.84;78.75;18497.09;5051135;28;20279;-59
2022/12/13 05:29:13;;;;;;;24.27;14.13;;;-5.80;99.90;;;-141.84;78.41;18509.28;5051950;28;20218;-57
2022/12/13 05:31:41;;;;;;;23.10;13.50;;;-5.80;99.90;;;-141.84;78.34;18523.50;5050753;28;20253;-58
2022/12/13 05:34:09;;;;;;;25.40;14.30;;;-5.80;99.90;;;-141.84;78.52;18553.97;5051167;28;20230;-57
2022/12/13 05:36:38;;;;;;;22.23;14.00;;;-5.90;99.90;;;-141.84;78.42;18513.34;5051156;28;20766;-59
2022/12/13 05:39:07;;;;;;;21.37;13.27;;;-5.90;99.90;;;-141.84;78.57;18533.66;5051212;28;20287;-56
2022/12/13 05:41:58;;;;;;;20.80;12.93;;;-5.90;99.90;;;-141.84;78.28;18505.22;5050836;28;20301;-59
2022/12/13 05:44:30;;;;;;;23.47;14.27;;;-5.80;99.90;;;-141.84;78.25;18515.38;5050832;28;20193;-57
2022/12/13 05:46:59;;;;;;;21.00;12.97;;;-5.80;99.90;;;-141.84;78.08;18501.16;5051058;28;20684;-59
2022/12/13 05:49:30;;;;;;;19.27;12.13;;;-5.80;99.90;;;-141.84;77.81;18533.66;5050556;28;20713;-58
2022/12/13 05:51:59;;;;;;;19.70;12.10;;;-5.80;99.90;;;-141.84;78.05;18509.28;5050941;28;20229;-57
2022/12/13 05:54:28;;;;;;;19.07;12.47;;;-5.80;99.90;;;-141.84;78.06;18503.19;5050829;28;20230;-58
2022/12/13 05:56:57;;;;;;;21.27;12.33;;;-5.80;99.90;;;-141.84;78.22;18517.41;5050898;28;20227;-57
2022/12/13 05:59:25;;;;;;;20.93;13.03;;;-5.90;99.90;;;-141.84;77.99;18523.50;5050542;28;20202;-57
2022/12/13 06:01:53;;;;;;;23.93;14.17;;;-5.90;99.90;;;-141.84;77.55;18521.47;5051484;28;20203;-56
2022/12/13 06:04:21;;;;;;;20.73;13.87;;;-5.90;99.90;;;-141.84;77.05;18517.41;5050963;28;20225;-58
2022/12/13 06:06:51;;;;;;;21.07;14.03;;;-5.90;99.90;;;-141.84;76.52;18519.44;5050817;28;20940;-58
2022/12/13 06:09:20;;;;;;;23.10;13.73;;;-5.90;99.90;;;-141.84;76.38;18562.09;5050796;28;20224;-56
2022/12/13 06:11:50;;;;;;;20.63;13.37;;;-5.90;99.90;;;-141.84;76.54;18549.91;5050394;28;20772;-58
2022/12/13 06:14:18;;;;;;;22.30;13.43;;;-5.90;99.90;;;-141.84;77.11;18531.63;5050847;28;20230;-58
2022/12/13 06:16:51;;;;;;;22.13;12.87;;;-5.90;99.90;;;-141.84;77.37;18533.66;5050876;28;20225;-55
2022/12/13 06:19:20;;;;;;;21.83;13.07;;;-6.00;99.90;;;-141.84;77.42;18497.09;5050871;28;20230;-59
2022/12/13 06:21:48;;;;;;;21.43;13.47;;;-6.00;99.90;;;-141.84;77.13;18521.47;5050461;28;20228;-55
2022/12/13 06:24:19;;;;;;;23.33;13.73;;;-5.90;99.90;;;-141.84;77.30;18525.53;5050802;28;20217;-57
2022/12/13 06:26:50;;;;;;;18.90;13.10;;;-5.90;99.90;;;-141.84;76.84;18533.66;5053169;28;20233;-58
2022/12/13 06:29:21;;;;;;;21.83;14.20;;;-5.90;99.90;;;-141.84;76.79;18537.72;5054312;28;20247;-58
2022/12/13 06:31:55;;;;;;;21.27;12.43;;;-5.90;99.90;;;-141.84;77.37;18486.94;5054839;28;20220;-56
2022/12/13 06:34:32;;;;;;;21.00;13.13;;;-6.00;99.90;;;-141.84;77.77;18529.59;5034395;28;20229;-58
2022/12/13 06:37:02;;;;;;;20.57;13.97;;;-6.10;99.90;;;-141.84;78.01;18511.31;5034462;28;20283;-55
2022/12/13 06:39:30;;;;;;;22.53;13.50;;;-6.10;99.90;;;-141.84;78.18;18505.22;5034495;28;20240;-56
2022/12/13 06:42:04;;;;;;;21.03;13.77;;;-6.10;99.90;;;-141.84;77.39;18535.69;5035863;28;20309;-56
2022/12/13 06:44:33;;;;;;;21.33;13.27;;;-6.00;99.90;;;-141.84;76.58;18531.63;5033879;28;20242;-56
2022/12/13 06:47:01;;;;;;;22.33;14.23;;;-5.90;99.90;;;-141.84;77.44;18505.22;5035009;28;20202;-55
2022/12/13 06:49:41;;;;;;;20.10;12.50;;;-6.00;99.90;;;-141.84;78.15;18517.41;5034186;28;20270;-55
2022/12/13 06:52:12;;;;;;;21.40;13.40;;;-6.00;99.90;;;-141.84;78.87;18533.66;5034412;28;20229;-58
2022/12/13 06:54:41;;;;;;;20.73;12.00;;;-6.10;99.90;;;-141.84;78.54;18558.03;5034085;28;20226;-56
2022/12/13 06:57:12;;;;;;;24.37;13.43;;;-6.00;99.90;;;-141.84;78.42;18533.66;5045665;28;20222;-57
2022/12/13 06:59:40;;;;;;;20.57;12.97;;;-5.90;99.90;;;-141.84;78.67;18507.25;5053180;28;20182;-59
2022/12/13 07:02:09;;;;;;;20.13;12.90;;;-5.90;99.90;;;-141.84;78.89;18525.53;5054161;28;20205;-57
2022/12/13 07:04:53;;;;;;;19.30;12.33;;;-6.00;99.90;;;-141.84;77.67;18535.69;5054362;28;20268;-57
2022/12/13 07:07:22;;;;;;;19.90;11.50;;;-5.90;99.90;;;-141.84;76.66;18533.66;5053754;28;20649;-56
2022/12/13 07:09:50;;;;;;;19.67;12.20;;;-5.80;99.90;;;-141.84;75.75;18529.59;5053904;28;20233;-58
2022/12/13 07:12:20;;;;;;;17.97;12.00;;;-5.70;99.90;;;-141.84;76.05;18553.97;5049939;28;20226;-56
2022/12/13 07:14:48;;;;;;;20.20;11.67;;;-5.90;99.90;;;-141.84;76.91;18519.44;5033197;28;20236;-57
2022/12/13 07:17:17;;;;;;;21.70;12.43;;;-5.90;99.90;;;-141.84;77.52;18521.47;5034156;28;20226;-58
2022/12/13 07:20:06;;;;;;;18.37;11.83;;;-6.00;99.90;;;-141.84;78.21;18551.94;5033829;28;20289;-57
2022/12/13 07:22:36;;;;;;;21.13;12.83;;;-6.00;99.90;;;-141.84;78.38;18525.53;5048178;28;20229;-56
2022/12/13 07:25:14;;;;;;;22.80;12.20;;;-6.00;99.90;;;-141.84;78.28;18493.03;5053209;28;20229;-55
2022/12/13 07:28:03;;;;;;;19.20;10.90;;;-6.00;99.90;;;-141.84;78.83;18525.53;5053329;28;20670;-59
2022/12/13 07:30:34;;;;;;;18.23;12.17;;;-6.10;99.90;;;-141.84;78.71;18545.84;5053145;28;20233;-57
2022/12/13 07:33:09;;;;;;;20.77;11.97;;;-6.00;99.90;;;-141.84;77.28;18525.53;5053159;28;20231;-59
2022/12/13 07:35:38;;;;;;;19.63;11.87;;;-5.90;99.90;;;-141.84;77.84;18529.59;5053560;28;20209;-58
2022/12/13 07:38:07;;;;;;;20.00;11.60;;;-5.90;99.90;;;-141.84;78.06;18519.44;5053503;28;20217;-58
2022/12/13 07:40:35;;;;;;;18.20;11.90;;;-5.90;99.90;;;-141.84;77.72;18527.56;5053189;28;20230;-54
2022/12/13 07:43:06;;;;;;;20.20;11.97;;;-5.80;99.90;;;-141.84;77.09;18533.66;5052494;28;20235;-53
2022/12/13 07:45:34;;;;;;;19.23;11.47;;;-5.70;99.90;;;-141.84;77.07;18491.00;5052652;28;20236;-56
2022/12/13 07:48:07;;;;;;;19.07;12.20;;;-5.70;99.90;;;-141.84;77.24;18503.19;5052860;28;20228;-56
2022/12/13 07:50:35;;;;;;;19.83;12.10;;;-5.70;99.90;;;-141.84;77.50;18511.31;5053157;28;20190;-53
2022/12/13 07:53:07;;;;;;;19.47;12.43;;;-5.70;99.90;;;-141.84;76.88;18529.59;5053137;28;20211;-56
2022/12/13 07:55:37;;;;;;;19.20;11.40;;;-5.60;99.90;;;-141.84;76.56;18521.47;5052758;28;20234;-55
2022/12/13 07:58:10;;;;;;;18.30;12.07;;;-5.60;99.90;;;-141.84;76.23;18513.34;5051710;28;20233;-52
2022/12/13 08:00:41;;;;;;;20.87;11.87;;;-5.60;99.90;;;-141.84;75.90;18521.47;5052344;28;20257;-55
2022/12/13 08:03:14;;;;;;;20.57;11.33;;;-5.50;99.90;;;-141.84;75.03;18531.63;5052668;28;20225;-55
2022/12/13 08:06:00;;;;;;;20.53;11.47;;;-5.40;99.90;;;-141.84;75.36;18509.28;5052556;28;20225;-55
2022/12/13 08:08:28;;;;;;;21.47;11.93;;;-5.40;99.90;;;-141.84;74.78;18558.03;5052420;28;20199;-55
2022/12/13 08:11:02;;;;;;;22.57;12.27;;;-5.30;99.90;;;-141.84;74.95;18556.00;5053315;28;20210;-56
2022/12/13 08:13:31;;;;;;;22.13;13.03;;;-5.30;99.90;;;-141.84;75.37;18543.81;5051503;28;20234;-52
2022/12/13 08:16:00;;;;;;;21.23;12.23;;;-5.30;99.90;;;-141.84;75.79;18535.69;5052406;28;20225;-54
2022/12/13 08:18:29;;;;;;;19.60;11.97;;;-5.40;99.90;;;-141.84;75.13;18547.88;5052195;28;20304;-52
2022/12/13 08:21:02;;;;;;;18.93;12.17;;;-5.30;99.90;;;-141.84;74.89;18570.22;5052033;28;20222;-57
2022/12/13 08:23:33;;;;;;;20.80;12.13;;;-5.20;99.90;;;-141.84;74.55;18541.78;5052414;28;20207;-56
2022/12/13 08:26:04;;;;;;;19.40;11.77;;;-5.20;99.90;;;-141.84;74.79;18521.47;5052915;28;20206;-54
2022/12/13 08:28:35;;;;;;;19.47;11.80;;;-5.20;99.90;;;-141.84;74.85;18574.28;5051372;28;20230;-56
2022/12/13 08:31:06;;;;;;;18.57;12.73;;;-5.20;99.90;;;-141.84;74.22;18553.97;5051357;28;20234;-55
2022/12/13 08:33:35;;;;;;;18.73;12.53;;;-5.00;99.90;;;-141.84;74.11;18529.59;5051183;28;20277;-56
2022/12/13 08:36:14;;;;;;;21.97;12.43;;;-5.00;99.90;;;-141.84;73.67;18553.97;5051843;28;20261;-55
2022/12/13 08:38:42;;;;;;;19.80;11.47;;;-4.90;99.90;;;-141.84;73.82;18547.88;5052186;28;20229;-57
2022/12/13 08:41:11;;;;;;;20.23;12.23;;;-4.90;99.90;;;-141.84;74.33;18517.41;5052601;28;20203;-56
2022/12/13 08:43:41;;;;;;;19.43;12.00;;;-4.80;99.90;;;-141.84;73.12;18592.59;5050289;28;20250;-57
2022/12/13 08:46:09;;;;;;;20.97;11.97;;;-4.70;99.90;;;-141.84;72.32;18564.13;5051894;28;20229;-56
2022/12/13 08:48:37;;;;;;;22.13;13.60;;;-4.60;99.90;;;-141.84;72.15;18570.22;5051183;28;20242;-57
2022/12/13 08:51:16;;;;;;;18.80;12.43;;;-4.40;99.90;;;-141.84;71.64;18566.16;5051959;28;20293;-57
2022/12/13 08:53:54;;;;;;;19.93;11.90;;;-4.30;99.90;;;-141.84;71.12;18574.28;5051737;28;20223;-59
2022/12/13 08:56:38;;;;;;;20.50;11.80;;;-4.20;99.90;;;-141.84;70.60;18588.53;5051916;28;20201;-57
2022/12/13 08:59:12;;;;;;;20.13;12.50;;;-4.10;99.90;;;-141.84;70.80;18572.25;5051232;28;20197;-58
2022/12/13 09:01:43;;;;;;;19.87;12.97;;;-4.10;99.90;;;-141.84;71.11;18580.41;5051698;28;20942;-58
2022/12/13 09:04:11;;;;;;;15.93;11.50;;;-4.10;99.90;;;-141.84;70.94;18586.50;5051506;28;20227;-56
2022/12/13 09:06:42;;;;;;;17.93;11.37;;;-4.10;99.90;;;-141.84;70.63;18590.56;5051478;28;20234;-73
2022/12/13 09:09:10;;;;;;;19.13;12.87;;;-4.10;99.90;;;-141.84;70.08;18592.59;5051525;28;20231;-73
2022/12/13 09:11:40;;;;;;;18.03;12.10;;;-4.10;99.90;;;-141.84;69.96;18564.13;5051463;28;20549;-74
2022/12/13 09:14:09;;;;;;;20.57;13.13;;;-4.10;99.90;;;-141.84;70.93;18594.63;5050782;28;20216;-56
2022/12/13 09:16:42;;;;;;;19.03;12.47;;;-4.00;99.90;;;-141.84;70.56;18606.81;5051387;28;20228;-55
2022/12/13 09:19:18;;;;;;;22.63;12.87;;;-3.90;99.90;;;-141.84;70.06;18584.47;5051266;28;20228;-55
2022/12/13 09:21:53;;;;;;;17.10;11.83;;;-3.90;99.90;;;-141.84;69.59;18582.44;5051211;28;20728;-54
2022/12/13 09:24:30;;;;;;;19.20;12.03;;;-3.90;99.90;;;-141.84;69.13;18541.78;5051310;28;20230;-56
2022/12/13 09:27:04;;;;;;;17.60;12.07;;;-3.80;99.90;;;-141.84;69.22;18586.50;5045246;28;20235;-56
2022/12/13 09:29:38;;;;;;;21.80;12.93;;;-3.80;99.90;;;-141.84;69.54;18598.69;5045675;28;20214;-58
2022/12/13 09:32:07;;;;;;;16.80;11.13;;;-3.70;99.90;;;-141.84;69.65;18570.22;5051564;28;20619;-56
2022/12/13 09:34:35;;;;;;;18.97;11.97;;;-3.70;99.90;;;-141.84;69.29;18590.56;5050623;28;20252;-56
2022/12/13 09:37:04;;;;;;;21.30;12.50;;;-3.60;99.90;;;-141.84;69.14;18604.78;5050974;28;20235;-56
2022/12/13 09:39:32;;;;;;;20.17;12.63;;;-3.50;99.90;;;-141.84;69.13;18621.03;5050696;28;20282;-54
2022/12/13 09:42:00;;;;;;;18.93;13.53;;;-3.40;99.90;;;-141.84;68.50;18608.84;5049982;28;20232;-55
2022/12/13 09:44:48;;;;;;;19.17;12.90;;;-3.40;99.90;;;-141.84;68.39;18602.75;5050671;28;20243;-57
2022/12/13 09:47:39;;;;;;;19.17;12.40;;;-3.40;99.90;;;-141.84;68.93;18594.63;5051063;28;20233;-54
2022/12/13 09:50:23;;;;;;;24.33;14.03;;;-3.30;99.90;;;-141.84;68.94;18602.75;5051252;28;20188;-55
2022/12/13 09:52:54;;;;;;;23.17;13.63;;;-3.30;99.90;;;-141.84;69.47;18549.91;5051003;28;20648;-56
2022/12/13 09:55:32;;;;;;;20.10;13.73;;;-3.10;99.90;;;-141.84;68.52;18616.97;5033540;28;20323;-59
2022/12/13 09:58:11;;;;;;;22.60;13.53;;;-3.00;99.90;;;-141.84;68.10;18594.63;5030250;28;20221;-57
2022/12/13 10:00:40;;;;;;;18.47;12.90;;;-3.10;99.90;;;-141.84;67.40;18639.31;5031088;28;20224;-57
2022/12/13 10:03:15;;;;;;;19.43;13.07;;;-2.90;99.90;;;-141.84;67.92;18572.25;5035110;28;20226;-53
2022/12/13 10:05:56;;;;;;;19.27;13.30;;;-2.90;99.90;;;-141.84;67.94;18580.41;5035071;28;20225;-55
2022/12/13 10:08:32;;;;;;;20.60;12.83;;;-2.90;99.90;;;-141.84;67.73;18598.69;5034892;28;20752;-57
2022/12/13 10:11:00;;;;;;;21.07;13.07;;;-2.80;99.90;;;-141.84;67.25;18610.88;5035518;28;20181;-57
2022/12/13 10:13:40;;;;;;;19.57;12.00;;;-2.80;99.90;;;-141.84;67.00;18635.25;5033523;28;20244;-56
2022/12/13 10:16:17;;;;;;;18.47;11.90;;;-2.80;99.90;;;-141.84;66.87;18649.47;5049772;28;20240;-57
2022/12/13 10:18:52;;;;;;;19.37;12.63;;;-2.70;99.90;;;-141.84;66.63;18590.56;5042769;28;20228;-55
2022/12/13 10:21:29;;;;;;;21.57;13.03;;;-2.70;99.90;;;-141.84;66.23;18627.13;5034724;28;20236;-56
2022/12/13 10:24:15;;;;;;;19.93;12.17;;;-2.70;99.90;;;-141.84;66.45;18651.50;5034635;28;20235;-55